Time;durP1;ratioP1;P1;durP2;ratioP2;P2;SDS_P1;SDS_P2;PMS_P1;PMS_P2;Temp;Humidity;BMP_temperature;BMP_pressure;BME280_temperature;BME280_humidity;BME280_pressure;Samples;Min_cycle;Max_cycle;Signal;HPM_P1;HPM_P2
2024/03/23 00:01:48;;;;;;;;;;;10.90;99.90;;;;;;4149402;28;20058;-55
2024/03/23 00:03:53;;;;;;;4.20;0.98;;;10.90;99.90;;;;;;4148753;28;20376;-57
2024/03/23 00:05:56;;;;;;;;;;;10.80;99.90;;;;;;4149591;28;20478;-57
2024/03/23 00:08:01;;;;;;;1.55;0.98;;;10.80;99.90;;;;;;4148873;28;19921;-57
2024/03/23 00:10:06;;;;;;;1.55;0.60;;;10.90;99.90;;;;;;4149696;28;20046;-58
2024/03/23 00:12:09;;;;;;;;;;;11.00;99.90;;;;;;4150454;28;20060;-58
2024/03/23 00:14:14;;;;;;;2.10;1.00;;;11.00;99.90;;;;;;4148758;28;19921;-57
2024/03/23 00:16:17;;;;;;;;;;;10.70;99.90;;;;;;4149020;28;20060;-57
2024/03/23 00:18:23;;;;;;;3.97;0.60;;;10.80;99.90;;;;;;4148262;28;20060;-56
2024/03/23 00:20:28;;;;;;;1.52;0.55;;;10.80;99.90;;;;;;4148429;28;20485;-57
2024/03/23 00:22:30;;;;;;;4.45;2.05;;;10.80;99.90;;;;;;4148159;28;20053;-57
2024/03/23 00:24:32;;;;;;;2.83;1.65;;;10.90;99.90;;;;;;4148235;28;20101;-56
2024/03/23 00:26:35;;;;;;;2.72;0.52;;;10.80;99.90;;;;;;4148216;28;20054;-57
2024/03/23 00:28:37;;;;;;;6.38;2.75;;;10.80;99.90;;;;;;4132328;28;20054;-57
2024/03/23 00:30:39;;;;;;;7.15;2.30;;;10.80;99.90;;;;;;4148273;28;20119;-57
2024/03/23 00:32:42;;;;;;;2.22;0.98;;;10.80;99.90;;;;;;4131686;28;20047;-58
2024/03/23 00:34:44;;;;;;;21.30;3.08;;;10.80;99.90;;;;;;4147936;28;20058;-57
2024/03/23 00:36:49;;;;;;;10.98;1.92;;;10.90;99.90;;;;;;4148118;28;20096;-57
2024/03/23 00:38:52;;;;;;;;;;;10.80;99.90;;;;;;4148548;28;20060;-57
2024/03/23 00:40:59;;;;;;;1.95;0.55;;;10.70;99.90;;;;;;4148309;28;19971;-57
2024/03/23 00:43:04;;;;;;;5.70;2.00;;;10.80;99.90;;;;;;4147896;28;20056;-56
2024/03/23 00:45:08;;;;;;;;;;;10.80;99.90;;;;;;4148375;28;20050;-57
2024/03/23 00:47:13;;;;;;;3.78;0.85;;;10.80;99.90;;;;;;4147782;28;19921;-57
2024/03/23 00:49:18;;;;;;;3.30;0.95;;;10.80;99.90;;;;;;4147879;28;20053;-57
2024/03/23 00:51:23;;;;;;;2.25;0.70;;;10.80;99.90;;;;;;4148228;28;20056;-57
2024/03/23 00:53:28;;;;;;;3.88;1.75;;;10.70;99.90;;;;;;4147750;28;20048;-57
2024/03/23 00:55:31;;;;;;;;;;;10.60;99.90;;;;;;4131926;28;20054;-57
2024/03/23 00:57:32;;;;;;;2.15;0.80;;;10.70;99.90;;;;;;4147877;28;19921;-57
2024/03/23 00:59:34;;;;;;;9.18;1.80;;;10.70;99.90;;;;;;4147676;28;20056;-58
2024/03/23 01:01:35;;;;;;;1.13;0.50;;;10.80;99.90;;;;;;4147312;28;20060;-58
2024/03/23 01:03:36;;;;;;;3.50;1.42;;;10.70;99.90;;;;;;4147739;28;20058;-62
2024/03/23 01:05:38;;;;;;;2.42;1.27;;;10.80;99.90;;;;;;4147462;28;20054;-57
2024/03/23 01:07:39;;;;;;;3.10;0.95;;;10.80;99.90;;;;;;4146818;28;20042;-57
2024/03/23 01:09:40;;;;;;;2.67;1.55;;;11.00;99.90;;;;;;4147540;28;20056;-57
2024/03/23 01:11:43;;;;;;;4.85;1.70;;;11.00;99.90;;;;;;4147659;28;20041;-57
2024/03/23 01:13:44;;;;;;;5.22;2.15;;;11.00;99.90;;;;;;4147691;28;20501;-55
2024/03/23 01:15:48;;;;;;;10.90;1.90;;;11.00;99.90;;;;;;4147247;28;20046;-57
2024/03/23 01:17:50;;;;;;;2.20;1.25;;;11.10;99.90;;;;;;4147478;28;20533;-56
2024/03/23 01:19:51;;;;;;;9.63;1.45;;;11.10;99.90;;;;;;4147699;28;20049;-56
2024/03/23 01:21:53;;;;;;;1.60;0.70;;;11.10;99.90;;;;;;4147467;28;20486;-56
2024/03/23 01:23:54;;;;;;;5.15;1.48;;;11.20;99.90;;;;;;4147675;28;20046;-58
2024/03/23 01:25:56;;;;;;;2.70;1.35;;;11.10;99.90;;;;;;4147137;28;20246;-56
2024/03/23 01:27:58;;;;;;;2.00;1.20;;;11.20;99.90;;;;;;4147409;28;20046;-57
2024/03/23 01:30:00;;;;;;;1.98;1.40;;;11.20;99.90;;;;;;4147099;28;20050;-57
2024/03/23 01:32:01;;;;;;;1.85;1.02;;;11.20;99.90;;;;;;4147218;28;20050;-57
2024/03/23 01:34:03;;;;;;;4.38;0.82;;;11.10;99.90;;;;;;4147281;28;20042;-54
2024/03/23 01:36:04;;;;;;;2.30;1.02;;;11.00;99.90;;;;;;4130823;28;20062;-55
2024/03/23 01:38:06;;;;;;;3.92;1.10;;;11.00;99.90;;;;;;4147119;28;20050;-55
2024/03/23 01:40:08;;;;;;;1.92;1.23;;;11.10;99.90;;;;;;4147077;28;20046;-55
2024/03/23 01:42:10;;;;;;;1.92;1.60;;;11.10;99.90;;;;;;4147357;28;20049;-55
2024/03/23 01:44:13;;;;;;;2.47;1.17;;;11.10;99.90;;;;;;4146696;28;20050;-54
2024/03/23 01:46:14;;;;;;;4.53;1.10;;;11.10;99.90;;;;;;4146991;28;20061;-54
2024/03/23 01:48:16;;;;;;;7.20;1.20;;;11.10;99.90;;;;;;4147260;28;20052;-54
2024/03/23 01:50:17;;;;;;;2.40;1.20;;;11.00;99.90;;;;;;4146963;28;20374;-53
2024/03/23 01:52:19;;;;;;;1.65;0.68;;;11.00;99.90;;;;;;4147403;28;20048;-53
2024/03/23 01:54:20;;;;;;;4.07;2.05;;;11.00;99.90;;;;;;4147057;28;20056;-57
2024/03/23 01:56:22;;;;;;;1.55;0.63;;;11.00;99.90;;;;;;4146760;28;20054;-56
2024/03/23 01:58:23;;;;;;;6.90;1.50;;;11.00;99.90;;;;;;4146685;28;20054;-54
2024/03/23 02:00:27;;;;;;;11.15;2.28;;;11.00;99.90;;;;;;4146543;28;20050;-55
2024/03/23 02:02:29;;;;;;;1.17;0.77;;;11.00;99.90;;;;;;4146602;28;20048;-55
2024/03/23 02:04:31;;;;;;;11.60;1.92;;;11.00;99.90;;;;;;4146727;28;20052;-57
2024/03/23 02:06:33;;;;;;;2.78;1.00;;;11.00;99.90;;;;;;4146765;28;20068;-56
2024/03/23 02:08:34;;;;;;;1.23;1.10;;;10.90;99.90;;;;;;4146672;28;20509;-56
2024/03/23 02:10:36;;;;;;;0.90;0.90;;;10.90;99.90;;;;;;4146768;28;20056;-55
2024/03/23 02:12:37;;;;;;;1.38;0.70;;;10.90;99.90;;;;;;4146723;28;20050;-57
2024/03/23 02:14:39;;;;;;;2.17;0.70;;;10.90;99.90;;;;;;4146431;28;20068;-55
2024/03/23 02:16:43;;;;;;;3.38;0.70;;;10.90;99.90;;;;;;4130381;28;20050;-57
2024/03/23 02:18:44;;;;;;;2.58;1.55;;;10.90;99.90;;;;;;4146219;28;20080;-56
2024/03/23 02:20:46;;;;;;;1.17;0.55;;;11.00;99.90;;;;;;4146476;28;20163;-57
2024/03/23 02:22:53;;;;;;;3.25;0.88;;;10.90;99.90;;;;;;4146419;28;20045;-56
2024/03/23 02:24:54;;;;;;;3.17;0.68;;;10.90;99.90;;;;;;4146478;28;20056;-57
2024/03/23 02:26:56;;;;;;;1.25;0.60;;;10.90;99.90;;;;;;4146437;28;20749;-56
2024/03/23 02:28:57;;;;;;;1.95;0.65;;;10.90;99.90;;;;;;4146109;28;20464;-58
2024/03/23 02:31:01;;;;;;;5.88;0.40;;;11.00;99.90;;;;;;4146511;28;20049;-57
2024/03/23 02:33:03;;;;;;;0.98;0.73;;;10.90;99.90;;;;;;4146359;28;20480;-56
2024/03/23 02:35:05;;;;;;;4.53;0.77;;;10.90;99.90;;;;;;4146518;28;20057;-57
2024/03/23 02:37:11;;;;;;;1.50;0.77;;;10.90;99.60;;;;;;4146582;28;20079;-57
2024/03/23 02:39:14;;;;;;;2.03;0.50;;;10.70;99.10;;;;;;4130067;28;20050;-57
2024/03/23 02:41:22;;;;;;;1.77;0.77;;;10.70;99.60;;;;;;4146313;28;20050;-58
2024/03/23 02:43:24;;;;;;;2.83;0.70;;;10.70;99.80;;;;;;4146259;28;20515;-57
2024/03/23 02:45:25;;;;;;;4.38;0.73;;;10.70;99.90;;;;;;4146347;28;20062;-56
2024/03/23 02:47:27;;;;;;;5.38;1.77;;;10.70;99.90;;;;;;4146176;28;20052;-56
2024/03/23 02:49:29;;;;;;;1.30;0.55;;;10.50;99.20;;;;;;4150924;28;20064;-60
2024/03/23 02:51:30;;;;;;;2.17;0.50;;;10.60;99.90;;;;;;4146702;28;20058;-56
2024/03/23 02:53:32;;;;;;;0.70;0.40;;;10.50;99.90;;;;;;4146340;28;20050;-57
2024/03/23 02:55:36;;;;;;;0.75;0.65;;;10.50;99.90;;;;;;4146159;28;20481;-55
2024/03/23 02:57:37;;;;;;;1.02;0.52;;;10.60;99.90;;;;;;4145860;28;20053;-55
2024/03/23 02:59:39;;;;;;;1.88;0.75;;;10.50;99.90;;;;;;4146082;28;20049;-54
2024/03/23 03:01:40;;;;;;;1.88;1.23;;;10.40;99.90;;;;;;4146358;28;20050;-55
2024/03/23 03:03:42;;;;;;;3.33;1.60;;;10.40;99.90;;;;;;4146039;28;20045;-56
2024/03/23 03:05:44;;;;;;;6.68;1.95;;;10.30;99.60;;;;;;4146229;28;20045;-55
2024/03/23 03:07:45;;;;;;;2.65;1.20;;;10.20;99.40;;;;;;4146237;28;20461;-55
2024/03/23 03:09:47;;;;;;;0.98;0.73;;;10.10;99.40;;;;;;4146296;28;20049;-55
2024/03/23 03:11:50;;;;;;;3.65;0.93;;;10.10;99.90;;;;;;4129597;28;20038;-56
2024/03/23 03:13:52;;;;;;;2.28;1.15;;;10.10;99.50;;;;;;4146166;28;20050;-56
2024/03/23 03:15:53;;;;;;;2.40;0.77;;;10.10;99.60;;;;;;4146040;28;20057;-56
2024/03/23 03:17:55;;;;;;;1.50;1.38;;;10.10;99.90;;;;;;4145857;28;20054;-57
2024/03/23 03:19:57;;;;;;;1.17;0.50;;;10.00;99.70;;;;;;4146011;28;20056;-57
2024/03/23 03:21:59;;;;;;;4.63;1.00;;;10.10;99.90;;;;;;4145966;28;20052;-56
2024/03/23 03:24:01;;;;;;;1.85;0.80;;;10.10;99.90;;;;;;4146195;28;20072;-56
2024/03/23 03:26:03;;;;;;;1.17;0.95;;;10.00;99.90;;;;;;4145813;28;20077;-56
2024/03/23 03:28:06;;;;;;;1.75;1.27;;;9.90;99.50;;;;;;4146032;28;20053;-57
2024/03/23 03:30:08;;;;;;;1.85;0.80;;;9.90;99.20;;;;;;4145920;28;20049;-56
2024/03/23 03:32:10;;;;;;;5.60;0.70;;;9.90;99.40;;;;;;4148099;28;20140;-56
2024/03/23 03:34:12;;;;;;;4.40;1.55;;;9.90;99.90;;;;;;4148969;28;20057;-57
2024/03/23 03:36:13;;;;;;;1.35;0.30;;;9.90;99.90;;;;;;4149105;28;20214;-57
2024/03/23 03:38:15;;;;;;;1.92;0.80;;;9.90;99.90;;;;;;4148937;28;20054;-56
2024/03/23 03:40:16;;;;;;;2.65;1.08;;;9.80;98.70;;;;;;4148556;28;20061;-56
2024/03/23 03:42:18;;;;;;;1.27;1.00;;;9.70;99.20;;;;;;4148968;28;20108;-56
2024/03/23 03:44:21;;;;;;;3.72;0.55;;;9.80;99.70;;;;;;4148925;28;20133;-55
2024/03/23 03:46:23;;;;;;;2.17;0.80;;;9.80;99.70;;;;;;4148767;28;20501;-57
2024/03/23 03:48:25;;;;;;;1.75;1.05;;;9.90;99.90;;;;;;4148822;28;20050;-56
2024/03/23 03:50:26;;;;;;;1.17;0.40;;;9.80;99.20;;;;;;4148798;28;20214;-56
2024/03/23 03:52:28;;;;;;;3.38;0.60;;;9.70;99.00;;;;;;4148535;28;20519;-56
2024/03/23 03:54:30;;;;;;;1.92;1.17;;;9.80;99.40;;;;;;4148836;28;20046;-56
2024/03/23 03:56:31;;;;;;;4.90;1.77;;;9.80;99.60;;;;;;4148282;28;20060;-57
2024/03/23 03:58:33;;;;;;;0.75;0.40;;;9.70;98.50;;;;;;4148652;28;20061;-56
2024/03/23 04:00:36;;;;;;;2.85;1.33;;;9.70;99.40;;;;;;4148727;28;20049;-57
2024/03/23 04:02:38;;;;;;;1.63;0.60;;;9.60;99.30;;;;;;4148525;28;20471;-57
2024/03/23 04:04:40;;;;;;;10.43;1.08;;;9.60;98.80;;;;;;4148509;28;20406;-55
2024/03/23 04:06:42;;;;;;;2.40;0.60;;;9.50;99.40;;;;;;4148844;28;20493;-55
2024/03/23 04:08:43;;;;;;;1.70;0.55;;;9.60;99.40;;;;;;4148445;28;20505;-55
2024/03/23 04:10:45;;;;;;;1.08;0.47;;;9.70;99.70;;;;;;4148298;28;20535;-57
2024/03/23 04:12:47;;;;;;;2.20;0.50;;;9.60;99.00;;;;;;4148512;28;20054;-56
2024/03/23 04:14:49;;;;;;;6.57;1.67;;;9.40;99.20;;;;;;4132126;28;20050;-55
2024/03/23 04:16:52;;;;;;;2.67;0.93;;;9.40;99.40;;;;;;4148184;28;20054;-57
2024/03/23 04:18:54;;;;;;;2.38;1.02;;;9.50;99.40;;;;;;4148411;28;20060;-56
2024/03/23 04:20:55;;;;;;;2.78;1.13;;;9.40;99.40;;;;;;4131918;28;20050;-57
2024/03/23 04:22:57;;;;;;;1.25;0.43;;;9.40;99.40;;;;;;4148316;28;20048;-57
2024/03/23 04:24:58;;;;;;;1.70;1.38;;;9.50;99.80;;;;;;4148061;28;20050;-57
2024/03/23 04:27:00;;;;;;;12.45;1.30;;;9.50;99.70;;;;;;4147987;28;20066;-57
2024/03/23 04:29:01;;;;;;;0.82;0.43;;;9.50;99.40;;;;;;4148146;28;20517;-56
2024/03/23 04:31:03;;;;;;;1.73;0.63;;;9.50;99.80;;;;;;4148321;28;20052;-57
2024/03/23 04:33:06;;;;;;;2.90;1.38;;;9.50;99.70;;;;;;4148093;28;20056;-57
2024/03/23 04:35:11;;;;;;;0.63;0.40;;;9.50;99.80;;;;;;4148229;28;20038;-57
2024/03/23 04:37:12;;;;;;;;;;;9.50;99.90;;;;;;4132331;28;20050;-57
2024/03/23 04:39:14;;;;;;;3.83;1.48;;;9.50;99.70;;;;;;4152508;28;19921;-58
2024/03/23 04:41:15;;;;;;;4.35;1.02;;;9.40;99.50;;;;;;4147850;28;20473;-58
2024/03/23 04:43:16;;;;;;;3.22;1.45;;;9.30;99.50;;;;;;4147877;28;20056;-57
2024/03/23 04:45:18;;;;;;;2.42;0.50;;;9.30;99.40;;;;;;4147986;28;20507;-57
2024/03/23 04:47:19;;;;;;;2.25;1.95;;;9.30;99.40;;;;;;4147818;28;20050;-58
2024/03/23 04:49:22;;;;;;;2.47;0.85;;;9.30;99.50;;;;;;4147966;28;20049;-58
2024/03/23 04:51:24;;;;;;;0.68;0.57;;;9.30;99.70;;;;;;4147825;28;20056;-58
2024/03/23 04:53:28;;;;;;;3.45;0.60;;;9.30;99.90;;;;;;4147700;28;20072;-58
2024/03/23 04:55:30;;;;;;;5.68;1.65;;;9.20;99.80;;;;;;4147703;28;20492;-58
2024/03/23 04:57:32;;;;;;;4.25;1.23;;;9.30;99.60;;;;;;4147880;28;20048;-55
2024/03/23 04:59:33;;;;;;;2.50;1.42;;;9.20;99.40;;;;;;4147756;28;20050;-57
2024/03/23 05:01:35;;;;;;;4.78;1.30;;;9.20;99.30;;;;;;4131723;28;20418;-56
2024/03/23 05:03:36;;;;;;;1.33;0.52;;;9.10;99.10;;;;;;4147868;28;20703;-56
2024/03/23 05:05:39;;;;;;;2.13;1.35;;;9.00;98.80;;;;;;4147462;28;20079;-55
2024/03/23 05:07:41;;;;;;;2.97;0.80;;;9.10;99.50;;;;;;4147251;28;20056;-58
2024/03/23 05:09:42;;;;;;;4.60;0.77;;;9.00;99.60;;;;;;4147468;28;20050;-58
2024/03/23 05:11:44;;;;;;;2.17;0.85;;;9.10;99.60;;;;;;4147628;28;20041;-58
2024/03/23 05:13:45;;;;;;;2.75;0.50;;;9.00;99.50;;;;;;4131297;28;20147;-56
2024/03/23 05:15:52;;;;;;;4.85;2.33;;;9.10;99.60;;;;;;4147350;28;20060;-57
2024/03/23 05:17:54;;;;;;;0.77;0.73;;;9.00;99.90;;;;;;4147418;28;20058;-56
2024/03/23 05:19:55;;;;;;;2.35;1.67;;;8.80;98.80;;;;;;4147324;28;20052;-57
2024/03/23 05:21:59;;;;;;;1.30;0.77;;;8.70;98.90;;;;;;4147099;28;20049;-56
2024/03/23 05:24:00;;;;;;;2.55;0.68;;;8.70;99.30;;;;;;4147359;28;20508;-57
2024/03/23 05:26:02;;;;;;;0.90;0.40;;;8.70;99.30;;;;;;4131013;28;20057;-56
2024/03/23 05:28:05;;;;;;;0.47;0.47;;;8.80;99.70;;;;;;4147405;28;20053;-58
2024/03/23 05:30:08;;;;;;;1.25;0.82;;;8.70;98.90;;;;;;4147466;28;20056;-57
2024/03/23 05:32:10;;;;;;;3.22;1.45;;;8.70;99.10;;;;;;4147684;28;20054;-57
2024/03/23 05:34:11;;;;;;;3.60;1.55;;;8.70;99.00;;;;;;4147525;28;20096;-56
2024/03/23 05:36:12;;;;;;;1.30;0.40;;;8.70;98.60;;;;;;4146703;28;20491;-56
2024/03/23 05:38:15;;;;;;;1.35;0.45;;;8.70;99.20;;;;;;4147059;28;20048;-58
2024/03/23 05:40:16;;;;;;;1.05;0.40;;;8.80;98.90;;;;;;4147042;28;20058;-57
2024/03/23 05:42:18;;;;;;;4.43;1.55;;;8.70;98.40;;;;;;4146915;28;20056;-58
2024/03/23 05:44:19;;;;;;;0.75;0.50;;;8.70;99.20;;;;;;4146923;28;20042;-58
2024/03/23 05:46:21;;;;;;;2.05;0.68;;;8.70;98.90;;;;;;4147222;28;20430;-58
2024/03/23 05:48:23;;;;;;;0.65;0.43;;;8.70;98.80;;;;;;4146901;28;20404;-57
2024/03/23 05:50:24;;;;;;;0.30;0.25;;;8.70;98.50;;;;;;4147262;28;20482;-57
2024/03/23 05:52:27;;;;;;;1.90;0.40;;;8.70;98.60;;;;;;4146919;28;20521;-57
2024/03/23 05:54:29;;;;;;;1.63;0.35;;;8.70;98.50;;;;;;4146281;28;20050;-57
2024/03/23 05:56:31;;;;;;;1.63;1.02;;;8.70;98.50;;;;;;4146883;28;20053;-54
2024/03/23 05:58:33;;;;;;;1.13;0.52;;;8.70;98.70;;;;;;4146833;28;20524;-56
2024/03/23 06:00:34;;;;;;;2.88;0.90;;;8.80;98.90;;;;;;4147204;28;20081;-57
2024/03/23 06:02:35;;;;;;;0.70;0.40;;;8.80;98.40;;;;;;4146874;28;20048;-56
2024/03/23 06:04:37;;;;;;;0.63;0.35;;;8.70;98.50;;;;;;4146822;28;20053;-57
2024/03/23 06:06:39;;;;;;;0.77;0.50;;;8.80;98.60;;;;;;4146428;28;20053;-56
2024/03/23 06:08:41;;;;;;;3.20;1.65;;;8.80;98.80;;;;;;4146759;28;20046;-57
2024/03/23 06:10:44;;;;;;;0.57;0.30;;;8.80;98.20;;;;;;4146872;28;20050;-57
2024/03/23 06:12:46;;;;;;;1.15;0.80;;;8.90;98.50;;;;;;4146867;28;20060;-57
2024/03/23 06:14:49;;;;;;;1.15;0.38;;;9.00;98.40;;;;;;4146742;28;20409;-57
2024/03/23 06:16:51;;;;;;;0.77;0.52;;;9.00;98.70;;;;;;4146566;28;20052;-57
2024/03/23 06:18:52;;;;;;;0.45;0.45;;;9.00;98.80;;;;;;4146460;28;20481;-57
2024/03/23 06:20:54;;;;;;;2.50;1.23;;;8.90;98.10;;;;;;4146553;28;20046;-57
2024/03/23 06:22:55;;;;;;;5.13;0.65;;;8.80;98.30;;;;;;4130159;28;20058;-56
2024/03/23 06:24:57;;;;;;;0.40;0.35;;;8.80;98.80;;;;;;4146741;28;20100;-57
2024/03/23 06:26:59;;;;;;;0.63;0.50;;;8.90;98.20;;;;;;4146415;28;20050;-57
2024/03/23 06:29:01;;;;;;;0.50;0.30;;;8.90;98.20;;;;;;4146687;28;20042;-57
2024/03/23 06:31:02;;;;;;;0.25;0.25;;;9.00;98.40;;;;;;4146540;28;20049;-57
2024/03/23 06:33:05;;;;;;;0.60;0.30;;;9.10;98.40;;;;;;4146576;28;20067;-57
2024/03/23 06:35:10;;;;;;;1.73;0.55;;;9.10;98.40;;;;;;4146300;28;20046;-56
2024/03/23 06:37:12;;;;;;;1.75;0.95;;;9.20;99.00;;;;;;4146210;28;20100;-56
2024/03/23 06:39:15;;;;;;;0.50;0.40;;;9.10;98.30;;;;;;4146329;28;20046;-53
2024/03/23 06:41:16;;;;;;;1.33;0.30;;;9.00;98.50;;;;;;4146573;28;20493;-52
2024/03/23 06:43:19;;;;;;;1.00;0.55;;;9.10;98.90;;;;;;4146348;28;20054;-55
2024/03/23 06:45:23;;;;;;;0.98;0.85;;;9.10;99.00;;;;;;4146264;28;20161;-54
2024/03/23 06:47:25;;;;;;;0.65;0.20;;;9.00;97.90;;;;;;4146539;28;20045;-56
2024/03/23 06:49:26;;;;;;;0.50;0.20;;;9.00;99.20;;;;;;4146019;28;20042;-54
2024/03/23 06:51:28;;;;;;;1.02;0.20;;;9.10;98.70;;;;;;4146221;28;20050;-54
2024/03/23 06:53:29;;;;;;;1.45;0.25;;;9.10;98.90;;;;;;4146420;28;20436;-55
2024/03/23 06:55:30;;;;;;;1.00;0.63;;;9.20;98.80;;;;;;4146541;28;20046;-56
2024/03/23 06:57:32;;;;;;;1.40;0.63;;;9.20;98.60;;;;;;4146172;28;20057;-57
2024/03/23 06:59:35;;;;;;;1.10;0.60;;;9.20;98.40;;;;;;4146485;28;20049;-57
2024/03/23 07:01:36;;;;;;;1.00;0.32;;;9.20;98.50;;;;;;4146450;28;20520;-56
2024/03/23 07:03:38;;;;;;;0.68;0.30;;;9.30;98.50;;;;;;4145779;28;20056;-57
2024/03/23 07:05:39;;;;;;;0.70;0.43;;;9.20;97.60;;;;;;4146194;28;20052;-57
2024/03/23 07:07:40;;;;;;;2.00;0.30;;;9.10;98.00;;;;;;4149562;28;20072;-56
2024/03/23 07:09:42;;;;;;;0.70;0.30;;;9.10;97.70;;;;;;4149549;28;20050;-57
2024/03/23 07:11:43;;;;;;;0.43;0.30;;;9.20;97.00;;;;;;4149648;28;20050;-57
2024/03/23 07:13:45;;;;;;;0.40;0.38;;;9.20;96.70;;;;;;4149905;28;20050;-56
2024/03/23 07:15:54;;;;;;;0.47;0.40;;;9.20;95.80;;;;;;4149356;28;20042;-57
2024/03/23 07:17:56;;;;;;;1.98;1.02;;;9.10;96.80;;;;;;4132432;28;20093;-57
2024/03/23 07:19:57;;;;;;;0.68;0.20;;;9.20;97.60;;;;;;4149420;28;20045;-56
2024/03/23 07:21:58;;;;;;;0.30;0.30;;;9.10;96.40;;;;;;4149219;28;20489;-54
2024/03/23 07:24:00;;;;;;;3.70;1.50;;;9.00;95.40;;;;;;4149744;28;20119;-55
2024/03/23 07:26:03;;;;;;;0.30;0.30;;;8.90;95.60;;;;;;4149255;28;20045;-54
2024/03/23 07:28:04;;;;;;;0.20;0.20;;;8.80;96.10;;;;;;4149559;28;20450;-55
2024/03/23 07:30:08;;;;;;;0.30;0.20;;;8.80;96.40;;;;;;4149608;28;20515;-57
2024/03/23 07:32:11;;;;;;;5.22;0.43;;;8.90;97.20;;;;;;4148927;28;20054;-54
2024/03/23 07:34:13;;;;;;;1.13;0.30;;;9.10;97.30;;;;;;4132882;28;20054;-56
2024/03/23 07:36:15;;;;;;;0.57;0.30;;;9.40;97.30;;;;;;4149257;28;20579;-57
2024/03/23 07:38:16;;;;;;;0.88;0.45;;;9.40;96.80;;;;;;4149317;28;20513;-56
2024/03/23 07:40:17;;;;;;;0.73;0.30;;;9.40;97.00;;;;;;4149230;28;20436;-56
2024/03/23 07:42:19;;;;;;;3.30;1.65;;;10.00;96.70;;;;;;4149494;28;20052;-55
2024/03/23 07:44:20;;;;;;;3.50;0.93;;;10.50;96.50;;;;;;4148845;28;20053;-57
2024/03/23 07:46:21;;;;;;;2.25;0.40;;;11.00;95.80;;;;;;4132748;28;20042;-54
2024/03/23 07:48:24;;;;;;;1.33;0.57;;;11.40;94.80;;;;;;4148513;28;20054;-54
2024/03/23 07:50:26;;;;;;;3.28;0.50;;;11.40;94.70;;;;;;4148676;28;20046;-53
2024/03/23 07:52:28;;;;;;;2.20;1.05;;;11.60;94.40;;;;;;4148944;28;20056;-57
2024/03/23 07:54:30;;;;;;;1.05;0.40;;;12.00;93.80;;;;;;4149797;28;20060;-56
2024/03/23 07:56:32;;;;;;;0.43;0.20;;;12.00;93.90;;;;;;4133682;28;20057;-55
2024/03/23 07:58:34;;;;;;;1.25;0.73;;;12.30;93.90;;;;;;4149214;28;20048;-54
2024/03/23 08:00:35;;;;;;;0.20;0.10;;;12.30;93.30;;;;;;4149131;28;20050;-54
2024/03/23 08:02:37;;;;;;;0.40;0.38;;;12.50;93.10;;;;;;4148799;28;20054;-54
2024/03/23 08:04:39;;;;;;;1.60;0.50;;;12.60;92.70;;;;;;4149084;28;20057;-57
2024/03/23 08:06:41;;;;;;;1.73;0.63;;;12.50;92.30;;;;;;4149156;28;20462;-57
2024/03/23 08:08:44;;;;;;;0.32;0.20;;;12.10;92.70;;;;;;4148556;28;20060;-57
2024/03/23 08:10:50;;;;;;;1.13;0.13;;;11.60;92.80;;;;;;4148930;28;20529;-56
2024/03/23 08:12:51;;;;;;;0.38;0.30;;;11.60;94.20;;;;;;4148876;28;20056;-55
2024/03/23 08:14:52;;;;;;;0.60;0.30;;;12.00;93.60;;;;;;4149149;28;20052;-57
2024/03/23 08:16:54;;;;;;;1.52;0.85;;;12.20;92.40;;;;;;4147874;28;20058;-56
2024/03/23 08:18:56;;;;;;;0.88;0.63;;;12.20;92.60;;;;;;4148358;28;20058;-58
2024/03/23 08:21:00;;;;;;;0.70;0.30;;;11.80;92.60;;;;;;4148501;28;20408;-58
2024/03/23 08:23:01;;;;;;;0.15;0.15;;;11.60;93.90;;;;;;4148278;28;20144;-57
2024/03/23 08:25:03;;;;;;;0.90;0.30;;;11.80;93.90;;;;;;4148370;28;20053;-57
2024/03/23 08:27:04;;;;;;;0.85;0.57;;;12.00;94.10;;;;;;4148322;28;20049;-54
2024/03/23 08:29:06;;;;;;;0.40;0.20;;;12.30;92.80;;;;;;4148383;28;20065;-57
2024/03/23 08:31:09;;;;;;;10.73;1.17;;;12.10;92.80;;;;;;4148167;28;20054;-55
2024/03/23 08:33:10;;;;;;;0.85;0.30;;;12.20;93.30;;;;;;4148456;28;20049;-55
2024/03/23 08:35:11;;;;;;;0.32;0.20;;;12.10;93.10;;;;;;4148827;28;20049;-55
2024/03/23 08:37:14;;;;;;;0.45;0.20;;;12.00;92.80;;;;;;4148008;28;20054;-55
2024/03/23 08:39:15;;;;;;;3.90;0.70;;;12.20;93.30;;;;;;4148573;28;20519;-55
2024/03/23 08:41:16;;;;;;;0.30;0.30;;;12.20;93.00;;;;;;4148586;28;20050;-55
2024/03/23 08:43:18;;;;;;;0.50;0.30;;;12.00;92.70;;;;;;4148284;28;20413;-56
2024/03/23 08:45:19;;;;;;;0.88;0.30;;;11.60;92.40;;;;;;4131354;28;20046;-57
2024/03/23 08:47:20;;;;;;;0.85;0.20;;;11.30;93.80;;;;;;4148423;28;20046;-55
2024/03/23 08:49:22;;;;;;;0.90;0.17;;;11.10;94.40;;;;;;4148104;28;20046;-55
2024/03/23 08:51:23;;;;;;;0.28;0.20;;;10.70;94.90;;;;;;4148113;28;20050;-55
2024/03/23 08:53:27;;;;;;;2.15;0.25;;;10.50;94.20;;;;;;4148146;28;20050;-55
2024/03/23 08:55:29;;;;;;;1.25;0.22;;;10.00;94.20;;;;;;4148066;28;20386;-55
2024/03/23 08:57:30;;;;;;;1.85;0.73;;;10.00;95.30;;;;;;4147775;28;20064;-56
2024/03/23 08:59:31;;;;;;;0.28;0.17;;;10.00;96.10;;;;;;4147697;28;20053;-57
2024/03/23 09:01:32;;;;;;;0.85;0.10;;;9.90;95.50;;;;;;4147826;28;20046;-57
2024/03/23 09:03:35;;;;;;;0.77;0.20;;;9.90;96.60;;;;;;4148108;28;20101;-57
2024/03/23 09:05:39;;;;;;;0.70;0.40;;;9.60;96.70;;;;;;4147856;28;20054;-57
2024/03/23 09:07:40;;;;;;;0.22;0.15;;;9.70;97.70;;;;;;4148128;28;20052;-57
2024/03/23 09:09:43;;;;;;;0.47;0.17;;;9.70;97.50;;;;;;4148252;28;20157;-56
2024/03/23 09:11:44;;;;;;;2.22;0.75;;;9.90;98.30;;;;;;4148006;28;20050;-57
2024/03/23 09:13:46;;;;;;;0.45;0.30;;;10.10;98.00;;;;;;4131473;28;20139;-56
2024/03/23 09:15:49;;;;;;;0.55;0.13;;;10.20;97.10;;;;;;4147914;28;20056;-56
2024/03/23 09:17:50;;;;;;;0.35;0.35;;;10.50;97.20;;;;;;4147497;28;20066;-57
2024/03/23 09:19:51;;;;;;;0.35;0.20;;;10.70;96.50;;;;;;4147636;28;20046;-57
2024/03/23 09:21:53;;;;;;;3.65;1.55;;;10.80;96.90;;;;;;4148061;28;20038;-56
2024/03/23 09:23:54;;;;;;;0.80;0.77;;;11.00;97.60;;;;;;4147560;28;20513;-56
2024/03/23 09:25:57;;;;;;;1.85;0.38;;;10.90;94.40;;;;;;4147608;28;20054;-55
2024/03/23 09:27:58;;;;;;;0.32;0.32;;;10.90;94.20;;;;;;4147566;28;20054;-56
2024/03/23 09:30:00;;;;;;;0.73;0.40;;;11.00;94.90;;;;;;4146687;28;20068;-56
2024/03/23 09:32:01;;;;;;;0.55;0.30;;;11.30;94.60;;;;;;4147442;28;20053;-55
2024/03/23 09:34:02;;;;;;;0.28;0.10;;;11.20;93.90;;;;;;4147364;28;20050;-55
2024/03/23 09:36:05;;;;;;;1.05;0.20;;;11.10;93.90;;;;;;4147312;28;20053;-56
2024/03/23 09:38:09;;;;;;;0.32;0.32;;;11.10;95.60;;;;;;4147676;28;20067;-56
2024/03/23 09:40:11;;;;;;;1.20;0.35;;;11.00;95.30;;;;;;4147418;28;20050;-56
2024/03/23 09:42:14;;;;;;;1.48;1.38;;;10.80;95.40;;;;;;4147343;28;20069;-53
2024/03/23 09:44:16;;;;;;;0.70;0.70;;;10.60;95.20;;;;;;4146886;28;20050;-54
2024/03/23 09:46:17;;;;;;;0.50;0.10;;;10.50;95.80;;;;;;4147349;28;20068;-53
2024/03/23 09:48:19;;;;;;;0.35;0.10;;;10.60;95.70;;;;;;4147268;28;20070;-57
2024/03/23 09:50:20;;;;;;;0.13;0.10;;;10.70;94.90;;;;;;4147144;28;20056;-58
2024/03/23 09:52:22;;;;;;;4.85;1.50;;;10.70;95.40;;;;;;4147375;28;20056;-53
2024/03/23 09:54:23;;;;;;;0.55;0.30;;;10.50;93.90;;;;;;4147425;28;20046;-55
2024/03/23 09:56:24;;;;;;;0.35;0.10;;;10.40;94.50;;;;;;4147004;28;20064;-57
2024/03/23 09:58:27;;;;;;;0.35;0.30;;;10.40;94.60;;;;;;4146648;28;20050;-55
2024/03/23 10:00:28;;;;;;;0.47;0.10;;;10.70;96.20;;;;;;4147357;28;20504;-56
2024/03/23 10:02:30;;;;;;;0.30;0.20;;;10.90;94.90;;;;;;4147179;28;20054;-56
2024/03/23 10:04:38;;;;;;;0.60;0.20;;;10.90;94.90;;;;;;4147245;28;20053;-58
2024/03/23 10:06:39;;;;;;;0.20;0.20;;;10.60;94.80;;;;;;4146706;28;20042;-56
2024/03/23 10:08:40;;;;;;;0.30;0.30;;;10.40;93.90;;;;;;4146845;28;20046;-57
2024/03/23 10:10:42;;;;;;;0.10;0.10;;;10.30;94.70;;;;;;4148027;28;20428;-56
2024/03/23 10:12:47;;;;;;;0.28;0.15;;;10.60;95.40;;;;;;4146491;28;20420;-56
2024/03/23 10:14:50;;;;;;;0.85;0.30;;;10.70;94.40;;;;;;4146724;28;20046;-56
2024/03/23 10:16:52;;;;;;;0.10;0.10;;;10.90;95.90;;;;;;4146539;28;20558;-57
2024/03/23 10:18:53;;;;;;;0.57;0.50;;;10.90;94.40;;;;;;4130733;28;20057;-58
2024/03/23 10:21:13;;;;;;;0.15;0.10;;;11.20;95.40;;;;;;4146711;28;20057;-56
2024/03/23 10:23:16;;;;;;;0.30;0.20;;;11.40;95.00;;;;;;4148317;28;20141;-54
2024/03/23 10:25:22;;;;;;;1.75;0.40;;;11.20;93.70;;;;;;4163031;28;20542;-55
2024/03/23 10:27:23;;;;;;;0.25;0.20;;;11.50;94.30;;;;;;4138046;28;20046;-55
2024/03/23 10:29:27;;;;;;;2.47;0.17;;;11.70;94.30;;;;;;4147100;28;20493;-53
2024/03/23 10:31:31;;;;;;;1.45;0.28;;;12.00;93.70;;;;;;4147378;28;20527;-56
2024/03/23 10:33:33;;;;;;;1.47;0.80;;;12.30;94.00;;;;;;4137940;28;20046;-58
2024/03/23 10:35:35;;;;;;;0.40;0.30;;;12.40;92.90;;;;;;4144904;28;20045;-57
2024/03/23 10:37:36;;;;;;;0.60;0.25;;;12.40;92.40;;;;;;4147607;28;20049;-57
2024/03/23 10:39:39;;;;;;;0.30;0.15;;;12.70;92.60;;;;;;4145716;28;20056;-54
2024/03/23 10:41:42;;;;;;;0.13;0.13;;;13.10;93.10;;;;;;4139582;28;20046;-54